Time;durP1;ratioP1;P1;durP2;ratioP2;P2;SDS_P1;SDS_P2;PMS_P1;PMS_P2;Temp;Humidity;BMP_temperature;BMP_pressure;BME280_temperature;BME280_humidity;BME280_pressure;Samples;Min_cycle;Max_cycle;Signal;HPM_P1;HPM_P2
2021/07/03 00:00:37;;;;;;;12.77;7.55;;;12.80;96.30;;;;;;5042310;28;20034;-84
2021/07/03 00:03:03;;;;;;;12.80;8.38;;;12.80;96.30;;;;;;5040957;28;20053;-84
2021/07/03 00:05:32;;;;;;;13.95;8.45;;;12.80;96.30;;;;;;5037093;28;20033;-83
2021/07/03 00:07:58;;;;;;;12.30;7.63;;;12.80;96.30;;;;;;5038295;28;20152;-83
2021/07/03 00:10:23;;;;;;;13.48;7.47;;;12.80;96.40;;;;;;5046726;28;20373;-84
2021/07/03 00:12:49;;;;;;;13.90;8.07;;;12.80;96.30;;;;;;5045524;28;20025;-83
2021/07/03 00:15:21;;;;;;;11.35;7.50;;;12.90;96.10;;;;;;5042616;28;20028;-82
2021/07/03 00:17:48;;;;;;;11.73;7.90;;;12.90;96.10;;;;;;5045483;28;20033;-84
2021/07/03 00:20:14;;;;;;;12.65;7.93;;;12.80;96.30;;;;;;5043115;28;20034;-84
2021/07/03 00:22:40;;;;;;;16.98;8.30;;;12.80;96.40;;;;;;5045522;28;20031;-85
2021/07/03 00:25:07;;;;;;;11.75;7.53;;;12.80;96.30;;;;;;5047143;28;20037;-84
2021/07/03 00:27:32;;;;;;;12.55;7.82;;;12.80;96.30;;;;;;5040600;28;20033;-84
2021/07/03 00:29:58;;;;;;;13.30;7.68;;;12.80;96.50;;;;;;5043106;28;20121;-83
2021/07/03 00:32:24;;;;;;;13.13;7.47;;;12.70;96.50;;;;;;5049255;28;20386;-83
2021/07/03 00:34:50;;;;;;;13.25;7.55;;;12.60;96.80;;;;;;5038782;28;20104;-83
2021/07/03 00:37:16;;;;;;;13.05;7.50;;;12.50;96.90;;;;;;5045208;28;20449;-82
2021/07/03 00:39:42;;;;;;;13.10;8.18;;;12.40;97.00;;;;;;5037929;28;20299;-83
2021/07/03 00:42:08;;;;;;;13.68;8.07;;;12.50;97.00;;;;;;5039091;28;20018;-83
2021/07/03 00:44:36;;;;;;;14.02;7.78;;;12.50;97.00;;;;;;5044032;28;20119;-83
2021/07/03 00:47:03;;;;;;;13.00;7.72;;;12.50;96.90;;;;;;5042095;28;20116;-83
2021/07/03 00:49:29;;;;;;;13.57;8.07;;;12.60;96.80;;;;;;5039116;28;20103;-83
2021/07/03 00:51:55;;;;;;;13.93;8.20;;;12.60;96.70;;;;;;5046616;28;20429;-84
2021/07/03 00:54:24;;;;;;;19.15;8.18;;;12.60;96.70;;;;;;5039530;28;20131;-83
2021/07/03 00:57:01;;;;;;;13.57;8.43;;;12.60;96.70;;;;;;5039954;28;20038;-83
2021/07/03 00:59:37;;;;;;;14.63;8.63;;;12.60;96.70;;;;;;5044586;28;20481;-83
2021/07/03 01:02:06;;;;;;;14.15;9.50;;;12.70;96.50;;;;;;5040965;28;20033;-83
2021/07/03 01:04:32;;;;;;;14.98;9.23;;;12.70;96.50;;;;;;5041219;28;20029;-83
2021/07/03 01:06:58;;;;;;;14.48;7.70;;;12.70;96.40;;;;;;5039341;28;20090;-83
2021/07/03 01:09:25;;;;;;;13.90;8.35;;;12.70;96.40;;;;;;5037285;28;20029;-83
2021/07/03 01:11:51;;;;;;;12.13;8.13;;;12.60;96.60;;;;;;5042997;28;20108;-82
2021/07/03 01:14:18;;;;;;;14.60;8.23;;;12.60;96.60;;;;;;5044806;28;20021;-84
2021/07/03 01:16:46;;;;;;;14.38;8.30;;;12.60;96.60;;;;;;5037523;28;20029;-83
2021/07/03 01:19:12;;;;;;;14.15;9.20;;;12.60;96.60;;;;;;5034954;28;20136;-83
2021/07/03 01:21:38;;;;;;;14.23;7.80;;;12.50;96.70;;;;;;5044593;28;20127;-83
2021/07/03 01:24:04;;;;;;;12.60;8.32;;;12.50;96.50;;;;;;5036740;28;20025;-83
2021/07/03 01:26:47;;;;;;;15.30;7.85;;;12.60;96.50;;;;;;5040829;28;21505;-83
2021/07/03 01:29:14;;;;;;;13.20;7.95;;;12.60;96.50;;;;;;5044832;28;20123;-83
2021/07/03 01:31:44;;;;;;;11.98;8.60;;;12.60;96.50;;;;;;5038404;28;20422;-82
2021/07/03 01:34:10;;;;;;;12.68;8.02;;;12.60;96.50;;;;;;5048112;28;20387;-81
2021/07/03 01:36:37;;;;;;;13.77;8.20;;;12.60;96.60;;;;;;5037534;28;20434;-82
2021/07/03 01:39:07;;;;;;;12.70;7.93;;;12.60;96.50;;;;;;5040762;28;20414;-82
2021/07/03 01:41:36;;;;;;;11.75;7.75;;;12.60;96.40;;;;;;5038434;28;20033;-82
2021/07/03 01:44:03;;;;;;;11.38;7.82;;;12.70;96.20;;;;;;5037474;28;20045;-83
2021/07/03 01:46:28;;;;;;;12.32;7.85;;;12.80;96.30;;;;;;5040549;28;20341;-83
2021/07/03 01:48:58;;;;;;;11.60;6.63;;;12.80;96.30;;;;;;5038993;28;20044;-83
2021/07/03 01:51:24;;;;;;;11.68;7.07;;;12.80;96.20;;;;;;5043443;28;20033;-83
2021/07/03 01:53:49;;;;;;;12.80;7.65;;;12.80;96.10;;;;;;5038772;28;20457;-83
2021/07/03 01:56:15;;;;;;;12.10;6.82;;;12.80;95.90;;;;;;5040733;28;20090;-83
2021/07/03 01:58:41;;;;;;;12.20;7.30;;;12.80;95.70;;;;;;5040450;28;20036;-83
2021/07/03 02:01:06;;;;;;;12.40;7.15;;;12.80;96.00;;;;;;5038227;28;20317;-83
2021/07/03 02:03:32;;;;;;;17.05;8.15;;;12.80;96.10;;;;;;5039042;28;20044;-83
2021/07/03 02:05:58;;;;;;;13.63;7.72;;;12.60;96.00;;;;;;5040010;28;20040;-83
2021/07/03 02:08:24;;;;;;;11.13;7.20;;;12.60;96.00;;;;;;5036733;28;20163;-83
2021/07/03 02:10:50;;;;;;;11.45;7.43;;;12.30;96.40;;;;;;5040800;28;20491;-83
2021/07/03 02:13:16;;;;;;;12.00;7.90;;;12.10;96.60;;;;;;5036982;28;20077;-83
2021/07/03 02:15:42;;;;;;;12.80;8.07;;;11.90;97.00;;;;;;5039368;28;20041;-83
2021/07/03 02:18:08;;;;;;;12.02;8.18;;;11.70;97.10;;;;;;5036702;28;20070;-83
2021/07/03 02:20:34;;;;;;;14.05;8.75;;;11.60;97.40;;;;;;5037509;28;20037;-83
2021/07/03 02:23:01;;;;;;;13.45;8.32;;;11.60;97.50;;;;;;5035370;28;20032;-82
2021/07/03 02:25:27;;;;;;;15.50;9.25;;;11.60;97.60;;;;;;5038608;28;20068;-82
2021/07/03 02:27:54;;;;;;;13.55;8.23;;;11.60;97.50;;;;;;5037926;28;20033;-82
2021/07/03 02:30:20;;;;;;;14.23;8.18;;;11.70;97.30;;;;;;5036778;28;20021;-82
2021/07/03 02:32:46;;;;;;;12.07;7.35;;;11.80;97.10;;;;;;5042708;28;20120;-83
2021/07/03 02:35:14;;;;;;;12.80;7.45;;;12.00;96.70;;;;;;5040957;28;20178;-82
2021/07/03 02:37:40;;;;;;;14.48;8.07;;;12.20;96.30;;;;;;5036849;28;20029;-82
2021/07/03 02:40:08;;;;;;;14.13;7.38;;;12.40;96.10;;;;;;5039022;28;20036;-83
2021/07/03 02:42:34;;;;;;;13.20;7.03;;;12.60;95.90;;;;;;5037911;28;20033;-83
2021/07/03 02:45:00;;;;;;;11.40;7.68;;;12.60;95.80;;;;;;5038318;28;20050;-83
2021/07/03 02:47:26;;;;;;;11.20;7.63;;;12.60;95.60;;;;;;5037725;28;20036;-83
2021/07/03 02:49:51;;;;;;;13.05;7.25;;;12.50;95.60;;;;;;5035226;28;20029;-82
2021/07/03 02:52:17;;;;;;;11.43;7.75;;;12.50;95.50;;;;;;5039320;28;20021;-83
2021/07/03 02:54:43;;;;;;;12.30;8.07;;;12.30;95.90;;;;;;5040888;28;20029;-84
2021/07/03 02:57:08;;;;;;;13.48;7.93;;;12.10;96.20;;;;;;5041069;28;20043;-83
2021/07/03 02:59:34;;;;;;;15.95;8.10;;;12.00;96.20;;;;;;5040896;28;20341;-82
2021/07/03 03:02:00;;;;;;;13.30;7.25;;;11.90;96.50;;;;;;5035745;28;20418;-82
2021/07/03 03:04:26;;;;;;;13.93;7.60;;;12.00;96.30;;;;;;5042786;28;20037;-83
2021/07/03 03:06:51;;;;;;;13.77;7.32;;;12.10;96.00;;;;;;5035817;28;20040;-82
2021/07/03 03:09:17;;;;;;;14.20;7.18;;;12.30;95.70;;;;;;5044252;28;20053;-85
2021/07/03 03:11:43;;;;;;;11.60;7.18;;;12.40;95.60;;;;;;5037080;28;20036;-83
2021/07/03 03:14:09;;;;;;;11.57;6.88;;;12.80;95.30;;;;;;5036045;28;20082;-84
2021/07/03 03:16:36;;;;;;;14.40;6.85;;;13.10;94.60;;;;;;5035056;28;20041;-83
2021/07/03 03:19:04;;;;;;;9.68;6.35;;;13.30;94.10;;;;;;5038654;28;20034;-82
2021/07/03 03:21:30;;;;;;;12.23;6.88;;;13.30;94.10;;;;;;5040887;28;20035;-83
2021/07/03 03:23:56;;;;;;;10.13;6.20;;;13.20;94.30;;;;;;5039621;28;20024;-83
2021/07/03 03:26:21;;;;;;;13.52;7.38;;;13.10;94.60;;;;;;5040748;28;20033;-83
2021/07/03 03:28:47;;;;;;;14.23;8.13;;;13.00;94.70;;;;;;5037195;28;20025;-83
2021/07/03 03:31:13;;;;;;;11.52;7.13;;;12.90;94.80;;;;;;5035278;28;20500;-83
2021/07/03 03:33:39;;;;;;;10.50;6.75;;;12.90;94.90;;;;;;5037976;28;20033;-84
2021/07/03 03:36:04;;;;;;;10.52;6.80;;;12.90;94.90;;;;;;5041143;28;20033;-83
2021/07/03 03:38:30;;;;;;;10.90;7.28;;;13.00;94.80;;;;;;5048687;28;20434;-82
2021/07/03 03:40:56;;;;;;;10.98;6.88;;;13.10;94.50;;;;;;5042372;28;20029;-83
2021/07/03 03:43:22;;;;;;;10.20;6.82;;;13.00;94.70;;;;;;5039988;28;20114;-82
2021/07/03 03:45:48;;;;;;;11.27;7.18;;;12.90;94.90;;;;;;5042360;28;20132;-82
2021/07/03 03:48:14;;;;;;;11.02;6.93;;;12.70;95.20;;;;;;5038613;28;20095;-83
2021/07/03 03:50:40;;;;;;;13.55;7.45;;;12.40;95.50;;;;;;5038140;28;20091;-83
2021/07/03 03:53:05;;;;;;;11.73;7.80;;;12.30;95.80;;;;;;5038703;28;20018;-82
2021/07/03 03:55:31;;;;;;;12.10;7.63;;;12.30;95.80;;;;;;5046377;28;20123;-83
2021/07/03 03:57:57;;;;;;;12.48;7.45;;;12.20;95.90;;;;;;5044863;28;20325;-82
2021/07/03 04:00:23;;;;;;;10.93;6.82;;;12.20;96.00;;;;;;5043465;28;20021;-83
2021/07/03 04:02:49;;;;;;;12.48;7.32;;;12.10;96.10;;;;;;5042857;28;20117;-82
2021/07/03 04:05:15;;;;;;;11.65;7.63;;;12.10;96.10;;;;;;5042341;28;20308;-83
2021/07/03 04:07:42;;;;;;;11.15;7.32;;;12.00;96.40;;;;;;5038566;28;20046;-83
2021/07/03 04:10:09;;;;;;;9.45;6.47;;;11.90;96.50;;;;;;5041053;28;20028;-83
2021/07/03 04:12:35;;;;;;;13.25;7.85;;;11.90;96.70;;;;;;5040338;28;20029;-83
2021/07/03 04:15:02;;;;;;;15.70;8.25;;;11.80;96.80;;;;;;5043768;28;20032;-83
2021/07/03 04:17:27;;;;;;;13.07;8.80;;;11.80;96.90;;;;;;5046997;28;20076;-83
2021/07/03 04:19:53;;;;;;;14.95;7.55;;;11.90;96.90;;;;;;5044605;28;20053;-83
2021/07/03 04:22:19;;;;;;;11.50;7.63;;;11.90;96.90;;;;;;5046396;28;20116;-83
2021/07/03 04:24:45;;;;;;;16.63;7.75;;;11.80;97.00;;;;;;5044651;28;20422;-83
2021/07/03 04:27:11;;;;;;;12.52;7.40;;;11.70;97.20;;;;;;5042896;28;20056;-83
2021/07/03 04:29:37;;;;;;;12.63;8.15;;;11.70;97.20;;;;;;5038148;28;20029;-82
2021/07/03 04:32:03;;;;;;;11.70;7.40;;;11.70;97.20;;;;;;5046413;28;20032;-82
2021/07/03 04:34:29;;;;;;;12.32;7.57;;;11.60;97.30;;;;;;5039406;28;20044;-82
2021/07/03 04:36:56;;;;;;;14.57;8.05;;;11.60;97.40;;;;;;5037218;28;20028;-83
2021/07/03 04:39:22;;;;;;;14.07;7.82;;;11.60;97.50;;;;;;5040004;28;20033;-82
2021/07/03 04:41:49;;;;;;;12.18;8.15;;;11.60;97.50;;;;;;5044392;28;20044;-82
2021/07/03 04:44:16;;;;;;;12.35;6.88;;;11.70;97.70;;;;;;5045939;28;20049;-82
2021/07/03 04:46:42;;;;;;;11.45;7.53;;;11.80;97.60;;;;;;5047553;28;20040;-83
2021/07/03 04:49:08;;;;;;;12.60;8.32;;;11.80;97.60;;;;;;5042107;28;20333;-83
2021/07/03 04:51:34;;;;;;;12.07;7.47;;;11.80;97.60;;;;;;5039951;28;20029;-83
2021/07/03 04:54:00;;;;;;;12.00;7.78;;;11.80;97.70;;;;;;5039408;28;20025;-82
2021/07/03 04:56:25;;;;;;;14.18;7.90;;;11.90;97.60;;;;;;5040588;28;20028;-82
2021/07/03 04:58:51;;;;;;;13.88;8.05;;;11.90;97.70;;;;;;5042067;28;20025;-82
2021/07/03 05:01:17;;;;;;;14.43;7.30;;;11.90;97.70;;;;;;5045763;28;20070;-83
2021/07/03 05:03:42;;;;;;;12.82;8.02;;;11.90;97.50;;;;;;5040251;28;20076;-82
2021/07/03 05:06:08;;;;;;;13.32;7.90;;;12.00;97.60;;;;;;5037813;28;20060;-83
2021/07/03 05:08:35;;;;;;;12.02;7.38;;;12.00;97.80;;;;;;5043423;28;20029;-83
2021/07/03 05:11:01;;;;;;;11.48;7.97;;;12.10;97.80;;;;;;5040133;28;20424;-82
2021/07/03 05:13:27;;;;;;;13.00;7.40;;;12.20;97.70;;;;;;5041981;28;20105;-82
2021/07/03 05:15:52;;;;;;;11.90;7.60;;;12.30;97.80;;;;;;5039228;28;20108;-82
2021/07/03 05:18:19;;;;;;;11.45;7.90;;;12.40;97.80;;;;;;5044422;28;20730;-82
2021/07/03 05:20:44;;;;;;;11.82;7.97;;;12.60;97.90;;;;;;5038569;28;20132;-83
2021/07/03 05:23:10;;;;;;;10.88;7.10;;;12.70;97.70;;;;;;5037148;28;20061;-82
2021/07/03 05:25:36;;;;;;;12.82;6.72;;;12.80;97.60;;;;;;5040145;28;20373;-82
2021/07/03 05:28:01;;;;;;;13.65;7.35;;;13.00;97.50;;;;;;5043895;28;21682;-82
2021/07/03 05:30:27;;;;;;;11.90;6.60;;;13.20;97.40;;;;;;5044056;28;20025;-82
2021/07/03 05:32:53;;;;;;;11.27;7.50;;;13.40;97.40;;;;;;5037496;28;20033;-82
2021/07/03 05:35:18;;;;;;;12.68;6.85;;;13.50;97.00;;;;;;5036228;28;20018;-82
2021/07/03 05:37:44;;;;;;;12.43;7.32;;;13.70;96.20;;;;;;5038210;28;20392;-82
2021/07/03 05:40:12;;;;;;;10.73;7.28;;;13.90;95.70;;;;;;5043726;28;20095;-82
2021/07/03 05:42:39;;;;;;;13.25;6.85;;;14.20;95.50;;;;;;5041660;28;20068;-83
2021/07/03 05:45:05;;;;;;;10.70;7.20;;;14.40;95.40;;;;;;5042497;28;20057;-83
2021/07/03 05:47:31;;;;;;;11.70;6.70;;;14.70;95.20;;;;;;5039044;28;20421;-83
2021/07/03 05:49:57;;;;;;;12.07;7.10;;;15.00;94.90;;;;;;5039391;28;20029;-83
2021/07/03 05:52:23;;;;;;;11.88;6.93;;;15.20;94.40;;;;;;5041061;28;20025;-82
2021/07/03 05:54:49;;;;;;;9.65;6.90;;;15.50;94.00;;;;;;5036834;28;20033;-81
2021/07/03 05:57:15;;;;;;;12.02;6.65;;;15.70;93.50;;;;;;5039964;28;20017;-82
2021/07/03 05:59:41;;;;;;;9.75;6.47;;;16.00;93.20;;;;;;5042997;28;20294;-82
2021/07/03 06:02:08;;;;;;;10.32;6.32;;;16.20;92.70;;;;;;5038751;28;20117;-82
2021/07/03 06:04:34;;;;;;;12.50;7.78;;;16.40;92.40;;;;;;5036088;28;20318;-84
2021/07/03 06:07:00;;;;;;;11.68;6.50;;;16.50;92.00;;;;;;5044819;28;20029;-84
2021/07/03 06:09:25;;;;;;;10.68;7.10;;;16.60;91.70;;;;;;5039328;28;20029;-83
2021/07/03 06:11:51;;;;;;;11.60;6.35;;;16.80;91.60;;;;;;5041248;28;20290;-83
2021/07/03 06:14:17;;;;;;;11.00;7.28;;;17.00;90.80;;;;;;5041106;28;20027;-83
2021/07/03 06:16:43;;;;;;;10.27;6.88;;;17.20;90.50;;;;;;5052543;28;20064;-83
2021/07/03 06:19:09;;;;;;;12.88;7.85;;;17.40;90.20;;;;;;5053412;28;20082;-83
2021/07/03 06:21:38;;;;;;;12.30;6.85;;;17.50;90.00;;;;;;5048539;28;20021;-82
2021/07/03 06:24:06;;;;;;;10.07;6.20;;;17.70;89.90;;;;;;5055090;28;20028;-83
2021/07/03 06:26:32;;;;;;;9.98;6.38;;;17.80;89.60;;;;;;5055479;28;20627;-83
2021/07/03 06:28:57;;;;;;;13.57;6.05;;;17.80;89.40;;;;;;5053141;28;20116;-83
2021/07/03 06:31:23;;;;;;;13.00;7.22;;;17.80;89.30;;;;;;5050808;28;20410;-83
2021/07/03 06:33:49;;;;;;;10.57;6.20;;;17.90;89.90;;;;;;5052633;28;20029;-83
2021/07/03 06:36:14;;;;;;;11.10;6.63;;;18.00;89.10;;;;;;5054782;28;20040;-83
2021/07/03 06:38:40;;;;;;;9.38;6.22;;;18.30;88.60;;;;;;5057022;28;20136;-82
2021/07/03 06:41:05;;;;;;;11.15;6.63;;;18.40;87.40;;;;;;5055376;28;20032;-83
2021/07/03 06:43:31;;;;;;;9.45;5.55;;;18.50;87.40;;;;;;5054808;28;20126;-83
2021/07/03 06:45:57;;;;;;;9.85;5.82;;;18.50;86.90;;;;;;5053516;28;20200;-82
2021/07/03 06:48:22;;;;;;;17.73;5.82;;;18.60;84.30;;;;;;5052609;28;20033;-83
2021/07/03 06:50:48;;;;;;;9.02;5.28;;;18.40;84.10;;;;;;5053548;28;20078;-82
2021/07/03 06:53:14;;;;;;;9.77;6.03;;;18.50;85.10;;;;;;5055186;28;20013;-83
2021/07/03 06:55:39;;;;;;;9.48;5.55;;;18.50;86.00;;;;;;5054794;28;20031;-83
2021/07/03 06:58:06;;;;;;;9.43;5.72;;;18.60;84.40;;;;;;5055502;28;20104;-82
2021/07/03 07:00:31;;;;;;;8.88;5.50;;;18.80;83.00;;;;;;5072888;28;20033;-82
2021/07/03 07:02:57;;;;;;;11.68;6.07;;;18.90;82.30;;;;;;5071171;28;20439;-83
2021/07/03 07:05:23;;;;;;;9.55;5.63;;;18.90;82.20;;;;;;5053804;28;20017;-83
2021/07/03 07:07:49;;;;;;;8.93;5.60;;;19.00;81.70;;;;;;5052725;28;20092;-82
2021/07/03 07:10:14;;;;;;;10.18;5.70;;;19.10;82.30;;;;;;5054126;28;20032;-83
2021/07/03 07:12:40;;;;;;;10.60;5.72;;;19.40;82.20;;;;;;5053233;28;20028;-82
2021/07/03 07:15:07;;;;;;;9.82;6.18;;;19.80;84.40;;;;;;5054839;28;20318;-82
2021/07/03 07:17:32;;;;;;;9.13;6.43;;;19.50;86.60;;;;;;5052957;28;20021;-82
2021/07/03 07:19:58;;;;;;;10.43;6.53;;;19.20;88.10;;;;;;5051171;28;20025;-82
2021/07/03 07:22:24;;;;;;;9.23;5.70;;;19.10;88.20;;;;;;5053064;28;20037;-82
2021/07/03 07:24:49;;;;;;;8.88;5.57;;;19.40;85.50;;;;;;5054924;28;20025;-82
2021/07/03 07:27:15;;;;;;;8.10;5.10;;;19.60;80.60;;;;;;5053323;28;20417;-83
2021/07/03 07:29:41;;;;;;;8.82;5.00;;;20.10;80.80;;;;;;5054112;28;20421;-83
2021/07/03 07:32:07;;;;;;;8.93;4.78;;;21.00;76.60;;;;;;5052730;28;20404;-83
2021/07/03 07:34:33;;;;;;;8.02;4.63;;;22.20;73.80;;;;;;5042769;28;20033;-83
2021/07/03 07:36:58;;;;;;;8.20;4.35;;;23.50;71.50;;;;;;5050273;28;20018;-83
2021/07/03 07:39:24;;;;;;;8.05;4.10;;;24.20;68.60;;;;;;5052895;28;20029;-82
2021/07/03 07:41:50;;;;;;;6.35;4.15;;;25.40;65.70;;;;;;5053741;28;20032;-83
2021/07/03 07:44:15;;;;;;;6.28;3.83;;;26.10;63.00;;;;;;5046280;28;20057;-83
2021/07/03 07:46:41;;;;;;;6.28;3.90;;;26.50;62.80;;;;;;5039640;28;20029;-83
2021/07/03 07:49:07;;;;;;;6.10;4.00;;;26.70;62.10;;;;;;5037407;28;20018;-83
2021/07/03 07:51:33;;;;;;;8.40;3.47;;;26.80;61.90;;;;;;5053852;28;20025;-83
2021/07/03 07:53:58;;;;;;;5.47;3.40;;;26.30;62.30;;;;;;5070199;28;20363;-82
2021/07/03 07:56:24;;;;;;;6.43;3.92;;;26.40;63.50;;;;;;5053683;28;20021;-83
2021/07/03 07:58:50;;;;;;;6.82;3.92;;;26.80;62.20;;;;;;5043474;28;20409;-83
2021/07/03 08:01:16;;;;;;;7.10;3.95;;;27.10;62.60;;;;;;5053941;28;20029;-82
2021/07/03 08:03:42;;;;;;;7.47;4.10;;;27.60;61.30;;;;;;5052274;28;20029;-82
2021/07/03 08:06:08;;;;;;;6.72;4.50;;;27.70;59.30;;;;;;5054183;28;20465;-82
2021/07/03 08:08:33;;;;;;;6.30;3.63;;;27.50;60.10;;;;;;5051948;28;20112;-82
2021/07/03 08:10:59;;;;;;;5.88;3.63;;;26.90;57.50;;;;;;5053277;28;20033;-82
2021/07/03 08:13:25;;;;;;;6.03;3.78;;;27.70;58.20;;;;;;5054028;28;20028;-81
2021/07/03 08:15:50;;;;;;;7.07;3.60;;;27.80;59.30;;;;;;5047183;28;20021;-81
2021/07/03 08:18:19;;;;;;;6.03;3.67;;;28.50;58.90;;;;;;5051175;28;20017;-82
2021/07/03 08:20:45;;;;;;;7.43;4.22;;;28.40;58.90;;;;;;5040934;28;20021;-81
2021/07/03 08:23:10;;;;;;;6.20;3.72;;;29.00;56.70;;;;;;5052734;28;20039;-82
2021/07/03 08:25:36;;;;;;;6.47;3.45;;;28.80;58.70;;;;;;5044742;28;20432;-82
2021/07/03 08:28:02;;;;;;;6.40;3.45;;;29.30;55.00;;;;;;5044337;28;20468;-82
2021/07/03 08:30:29;;;;;;;5.82;3.40;;;29.70;55.70;;;;;;5055698;28;20437;-82
2021/07/03 08:32:55;;;;;;;8.00;3.75;;;30.20;53.30;;;;;;5044590;28;20026;-82
2021/07/03 08:35:21;;;;;;;5.97;3.83;;;30.40;54.60;;;;;;5043158;28;20051;-81
2021/07/03 08:37:47;;;;;;;6.55;3.90;;;30.50;57.10;;;;;;5046905;28;20025;-81
2021/07/03 08:40:15;;;;;;;6.63;3.55;;;30.20;57.80;;;;;;5047562;28;20032;-81
2021/07/03 08:42:41;;;;;;;6.32;3.85;;;29.60;54.20;;;;;;5058526;28;20085;-81
2021/07/03 08:45:08;;;;;;;6.13;3.65;;;29.10;56.50;;;;;;5058717;28;20080;-81
2021/07/03 08:47:35;;;;;;;5.68;3.45;;;28.70;56.30;;;;;;5046583;28;20107;-81
2021/07/03 08:50:02;;;;;;;6.78;4.05;;;28.00;56.70;;;;;;5052328;28;20025;-80
2021/07/03 08:52:28;;;;;;;6.07;3.47;;;28.40;55.40;;;;;;5055565;28;20032;-81
2021/07/03 08:55:03;;;;;;;6.30;3.90;;;28.90;58.80;;;;;;5054820;28;20477;-81
2021/07/03 08:57:31;;;;;;;5.50;3.85;;;29.60;57.20;;;;;;5042284;28;20104;-81
2021/07/03 08:59:58;;;;;;;5.78;3.50;;;29.70;58.40;;;;;;5055460;28;20563;-83
2021/07/03 09:02:34;;;;;;;5.68;2.97;;;30.70;55.40;;;;;;5059095;28;20037;-81
2021/07/03 09:05:02;;;;;;;7.40;3.50;;;31.50;52.30;;;;;;5050529;28;20083;-80
2021/07/03 09:07:35;;;;;;;5.57;3.38;;;31.80;54.00;;;;;;5050594;28;20064;-80
2021/07/03 09:10:02;;;;;;;6.43;3.70;;;32.40;52.50;;;;;;5042589;28;20033;-80
2021/07/03 09:12:36;;;;;;;6.82;3.58;;;32.40;52.10;;;;;;5038499;28;20031;-80
2021/07/03 09:15:13;;;;;;;7.05;3.95;;;33.20;51.00;;;;;;5055214;28;20033;-81
2021/07/03 09:17:55;;;;;;;7.25;3.60;;;33.80;50.50;;;;;;5052703;28;20491;-82
2021/07/03 09:20:25;;;;;;;6.13;3.67;;;33.60;51.10;;;;;;5048865;28;20333;-82
2021/07/03 09:22:58;;;;;;;5.72;3.60;;;32.40;51.00;;;;;;5045872;28;20025;-82
2021/07/03 09:25:24;;;;;;;6.32;4.05;;;31.30;53.30;;;;;;5042588;28;20022;-83
2021/07/03 09:27:50;;;;;;;7.35;3.72;;;31.90;54.30;;;;;;5051866;28;20112;-82
2021/07/03 09:30:19;;;;;;;5.88;3.83;;;31.20;53.40;;;;;;5050061;28;20409;-82
2021/07/03 09:32:52;;;;;;;8.80;4.05;;;30.90;54.90;;;;;;5047211;28;20021;-82
2021/07/03 09:35:18;;;;;;;8.77;4.03;;;30.40;54.10;;;;;;5053290;28;20036;-81
2021/07/03 09:37:44;;;;;;;6.75;4.05;;;30.10;55.30;;;;;;5050818;28;20120;-82
2021/07/03 09:40:11;;;;;;;8.02;4.88;;;30.40;54.40;;;;;;5049382;28;20044;-82
2021/07/03 09:42:38;;;;;;;6.80;3.72;;;30.80;53.10;;;;;;5046830;28;20661;-82
2021/07/03 09:45:06;;;;;;;7.70;4.38;;;31.10;55.90;;;;;;5046353;28;20338;-82
2021/07/03 09:47:32;;;;;;;5.80;3.72;;;31.50;54.80;;;;;;5049703;28;20020;-82
2021/07/03 09:50:02;;;;;;;7.85;4.32;;;31.30;55.20;;;;;;5036728;28;20120;-82
2021/07/03 09:52:28;;;;;;;5.97;3.72;;;31.50;55.70;;;;;;5047551;28;20049;-82
2021/07/03 09:54:53;;;;;;;6.18;4.15;;;31.60;55.80;;;;;;5047241;28;20353;-81
2021/07/03 09:57:21;;;;;;;7.45;4.65;;;31.70;54.10;;;;;;5052543;28;20056;-81
2021/07/03 09:59:49;;;;;;;9.32;4.82;;;30.80;55.20;;;;;;5042990;28;20567;-82
2021/07/03 10:02:15;;;;;;;7.15;4.40;;;29.60;56.90;;;;;;5045238;28;20045;-82
2021/07/03 10:04:40;;;;;;;6.80;4.32;;;27.90;60.50;;;;;;5043204;28;20024;-81
2021/07/03 10:07:10;;;;;;;6.35;4.10;;;26.90;59.90;;;;;;5053694;28;20109;-80
2021/07/03 10:09:49;;;;;;;6.05;3.88;;;26.70;61.00;;;;;;5053920;28;20578;-80
2021/07/03 10:12:21;;;;;;;8.88;3.80;;;27.80;62.30;;;;;;5053761;28;20119;-81
2021/07/03 10:14:48;;;;;;;6.38;3.83;;;29.50;58.10;;;;;;5047067;28;20037;-81
2021/07/03 10:17:25;;;;;;;6.63;4.30;;;29.60;58.50;;;;;;5036192;28;20026;-81
2021/07/03 10:19:52;;;;;;;6.90;4.63;;;29.10;57.60;;;;;;5034297;28;20333;-81
2021/07/03 10:22:24;;;;;;;6.10;3.92;;;29.30;56.70;;;;;;5053108;28;20039;-82
2021/07/03 10:25:11;;;;;;;5.85;3.95;;;29.20;56.10;;;;;;5052718;28;20025;-81
2021/07/03 10:27:52;;;;;;;7.75;3.75;;;29.60;57.10;;;;;;5039953;28;20033;-81
2021/07/03 10:30:32;;;;;;;5.75;3.60;;;29.60;54.80;;;;;;5056343;28;20033;-81
2021/07/03 10:33:23;;;;;;;6.70;4.15;;;29.80;53.50;;;;;;5051148;28;20033;-81
2021/07/03 10:35:49;;;;;;;6.30;4.13;;;30.20;55.60;;;;;;5042378;28;20033;-81
2021/07/03 10:38:26;;;;;;;6.20;4.30;;;30.10;55.80;;;;;;5040742;28;20017;-81
2021/07/03 10:41:11;;;;;;;6.70;3.90;;;29.80;58.10;;;;;;5035899;28;20123;-81
2021/07/03 10:43:45;;;;;;;6.75;3.55;;;30.20;57.00;;;;;;5037989;28;20020;-81
2021/07/03 10:46:11;;;;;;;7.18;3.80;;;30.80;56.00;;;;;;5053244;28;20047;-81
2021/07/03 10:48:37;;;;;;;6.55;4.03;;;30.80;54.00;;;;;;5054079;28;20437;-81
2021/07/03 10:51:11;;;;;;;6.22;3.70;;;30.20;54.70;;;;;;5047058;28;20086;-81
2021/07/03 10:53:37;;;;;;;5.68;3.55;;;30.50;58.20;;;;;;5048111;28;20057;-81
2021/07/03 10:56:14;;;;;;;6.65;3.83;;;30.50;55.00;;;;;;5041987;28;20053;-81
2021/07/03 10:58:42;;;;;;;7.45;4.47;;;30.70;54.50;;;;;;5043465;28;20022;-81
2021/07/03 11:01:09;;;;;;;8.40;4.15;;;30.60;54.50;;;;;;5041872;28;20457;-81
2021/07/03 11:03:45;;;;;;;6.68;4.47;;;30.60;56.30;;;;;;5047509;28;20116;-81
2021/07/03 11:06:21;;;;;;;7.57;4.25;;;29.60;61.10;;;;;;5035379;28;20034;-81
2021/07/03 11:08:48;;;;;;;6.43;4.30;;;29.70;55.80;;;;;;5036699;28;20021;-81
2021/07/03 11:11:16;;;;;;;8.30;4.07;;;29.20;59.40;;;;;;5047148;28;20021;-81
2021/07/03 11:13:44;;;;;;;9.85;4.28;;;29.80;58.30;;;;;;5043520;28;20029;-80
2021/07/03 11:16:13;;;;;;;11.73;4.43;;;30.40;57.30;;;;;;5046091;28;20376;-81
2021/07/03 11:18:44;;;;;;;6.47;4.43;;;29.70;56.00;;;;;;5050367;28;20332;-81
2021/07/03 11:21:12;;;;;;;7.43;4.20;;;29.40;57.90;;;;;;5038894;28;20025;-80
2021/07/03 11:23:38;;;;;;;6.47;4.10;;;29.70;57.10;;;;;;5040319;28;20036;-81
2021/07/03 11:26:13;;;;;;;6.50;4.20;;;30.20;55.40;;;;;;5038380;28;20079;-82
2021/07/03 11:28:39;;;;;;;5.60;3.78;;;30.50;58.40;;;;;;5037846;28;20102;-81
2021/07/03 11:31:05;;;;;;;9.55;4.30;;;30.20;55.80;;;;;;5040365;28;20037;-81
2021/07/03 11:33:36;;;;;;;6.18;4.13;;;30.50;59.00;;;;;;5039719;28;20020;-81
2021/07/03 11:36:05;;;;;;;5.35;3.50;;;30.30;57.50;;;;;;5045591;28;20034;-81
2021/07/03 11:38:32;;;;;;;8.43;3.75;;;30.60;57.10;;;;;;5034147;28;20033;-81
2021/07/03 11:41:02;;;;;;;6.28;4.03;;;30.90;56.30;;;;;;5035961;28;21009;-81
2021/07/03 11:43:29;;;;;;;6.50;4.35;;;30.50;55.90;;;;;;5041691;28;20820;-80
2021/07/03 11:45:56;;;;;;;6.28;3.70;;;29.90;56.70;;;;;;5040797;28;20341;-80
2021/07/03 11:48:23;;;;;;;7.13;4.20;;;29.60;56.70;;;;;;5048391;28;20441;-79
2021/07/03 11:50:58;;;;;;;6.72;4.32;;;29.20;57.80;;;;;;5040777;28;20532;-79
2021/07/03 11:53:29;;;;;;;5.82;4.13;;;28.90;59.30;;;;;;5043554;28;20086;-79
2021/07/03 11:55:59;;;;;;;8.05;4.13;;;28.70;58.40;;;;;;5044491;28;20024;-82
2021/07/03 11:58:35;;;;;;;5.85;3.78;;;28.60;58.70;;;;;;5039308;28;20040;-81
2021/07/03 12:01:07;;;;;;;6.82;3.70;;;29.20;58.70;;;;;;5033835;28;20030;-82
2021/07/03 12:03:41;;;;;;;6.70;3.63;;;30.00;61.10;;;;;;5034157;28;20175;-80
2021/07/03 12:06:07;;;;;;;6.93;3.90;;;29.60;59.80;;;;;;5048355;28;20082;-78
2021/07/03 12:08:46;;;;;;;7.68;4.38;;;29.80;58.70;;;;;;5050578;28;20040;-82
2021/07/03 12:11:15;;;;;;;6.60;3.83;;;30.60;55.10;;;;;;5046966;28;20033;-79
2021/07/03 12:13:51;;;;;;;6.38;4.00;;;30.90;55.00;;;;;;5051421;28;20098;-82
2021/07/03 12:16:21;;;;;;;6.25;3.95;;;30.70;55.70;;;;;;5044682;28;20018;-80
2021/07/03 12:18:55;;;;;;;6.53;3.63;;;30.20;54.60;;;;;;5056042;28;20075;-82
2021/07/03 12:21:24;;;;;;;5.20;3.53;;;29.90;55.50;;;;;;5048179;28;20029;-82
2021/07/03 12:24:00;;;;;;;5.93;3.70;;;29.30;54.50;;;;;;5042864;28;20162;-81
2021/07/03 12:26:48;;;;;;;4.82;3.25;;;28.90;54.90;;;;;;5037387;28;20033;-80
2021/07/03 12:29:26;;;;;;;6.10;3.58;;;28.50;53.30;;;;;;5050323;28;20028;-81
2021/07/03 12:31:52;;;;;;;4.90;3.20;;;28.50;53.80;;;;;;5038156;28;20091;-81
2021/07/03 12:34:25;;;;;;;4.90;3.08;;;28.80;53.20;;;;;;5056164;28;20037;-81
2021/07/03 12:36:52;;;;;;;5.20;3.00;;;29.50;53.20;;;;;;5038847;28;20029;-80
2021/07/03 12:39:21;;;;;;;5.40;3.47;;;30.10;53.20;;;;;;5055279;28;20025;-81
2021/07/03 12:41:57;;;;;;;5.03;2.90;;;29.80;54.10;;;;;;5045855;28;20056;-81